ADDS METAR Data INFO
IDs: Format: Raw Decoded Include TAF

Data at: 0435 UTC 28 Jul 2017

KJCT 280351Z AUTO 16008KT 10SM CLR 31/17 A2998 RMK AO2 SLP109 T03060172 TSNO
KJCT 280251Z AUTO 15010KT 10SM CLR 32/17 A2996 RMK AO2 SLP106 T03170167 53005 TSNO
KJCT 280151Z AUTO 16010KT 10SM CLR 33/16 A2995 RMK AO2 SLP101 T03280161 TSNO
KJCT 280051Z AUTO 15011KT 10SM SCT085 34/16 A2995 RMK AO2 SLP100 T03440161 TSNO
KJCT 272351Z AUTO 16009KT 10SM CLR 36/16 A2995 RMK AO2 SLP101 T03560156 10367 20333 56016 TSNO
KJCT 272251Z AUTO 14007G16KT 10SM CLR 36/15 A2996 RMK AO2 SLP103 T03560150 TSNO
KJCT 272151Z AUTO 15011G17KT 10SM CLR 37/15 A2998 RMK AO2 SLP110 T03670150 TSNO
KJCT 272051Z AUTO 18004KT 10SM CLR 36/17 A3000 RMK AO2 SLP118 T03560167 58025 TSNO
KJCT 271951Z AUTO 17012KT 10SM CLR 35/16 A3003 RMK AO2 SLP128 T03500161 TSNO
KJCT 271851Z AUTO 16012G18KT 10SM CLR 35/17 A3006 RMK AO2 SLP136 T03500167 TSNO
KJCT 271751Z AUTO VRB06KT 10SM CLR 33/18 A3008 RMK AO2 SLP144 T03330178 10333 20217 58005 TSNO
KJCT 271651Z AUTO 22009KT 10SM CLR 32/18 A3009 RMK AO2 SLP149 T03220183 TSNO
KJCT 271551Z AUTO 20012KT 10SM CLR 30/19 A3010 RMK AO2 SLP151 T03000189 TSNO
KJCT 271451Z AUTO 22005KT 10SM CLR 27/20 A3009 RMK AO2 SLP151 T02720200 51006 TSNO
KJCT 271351Z AUTO 21004KT 10SM CLR 25/20 A3009 RMK AO2 SLP148 T02500200 TSNO
KJCT 271251Z AUTO 00000KT 10SM CLR 23/19 A3008 RMK AO2 SLP147 T02330194 TSNO
KJCT 271151Z AUTO 00000KT 10SM CLR 23/19 A3007 RMK AO2 SLP143 T02280189 10267 20222 53002 TSNO
KJCT 271051Z AUTO 19003KT 10SM CLR 23/19 A3006 RMK AO2 SLP139 T02330194 TSNO
KJCT 270951Z AUTO 21004KT 10SM CLR 24/19 A3006 RMK AO2 SLP138 T02390189 TSNO
KJCT 270851Z AUTO 18006KT 10SM CLR 24/19 A3007 RMK AO2 SLP140 T02440189 58005 TSNO
KJCT 270751Z AUTO 19008KT 10SM CLR 25/19 A3008 RMK AO2 SLP143 T02500189 TSNO
KJCT 270651Z AUTO 17006KT 10SM CLR 26/19 A3008 RMK AO2 SLP146 T02560189 TSNO
KJCT 270551Z AUTO 17005KT 10SM CLR 27/19 A3008 RMK AO2 SLP146 T02670189 10356 20267 403670239 51015 TSNO
KJCT 270451Z AUTO 17009G16KT 10SM CLR 28/20 A3007 RMK AO2 SLP143 T02780200 TSNO
KJCT 270351Z AUTO 17009KT 10SM CLR 29/19 A3006 RMK AO2 SLP137 T02890194 TSNO
KJCT 270251Z AUTO 16017G24KT 10SM CLR 30/19 A3004 RMK AO2 SLP132 T03000189 53014 TSNO
KJCT 270151Z AUTO 15007KT 10SM CLR 33/16 A3001 RMK AO2 SLP121 T03330156 TSNO
KJCT 270051Z AUTO 15012G20KT 10SM CLR 34/16 A3000 RMK AO2 SLP119 T03440161 TSNO
KJCT 262351Z AUTO 16012KT 10SM CLR 36/16 A2999 RMK AO2 SLP116 T03560156 10367 20333 56012 TSNO
KJCT 262251Z AUTO 17009KT 10SM FEW080 36/16 A3000 RMK AO2 SLP116 T03560156 TSNO
KJCT 262151Z AUTO 18013G17KT 10SM CLR 36/16 A3001 RMK AO2 SLP120 T03610156 TSNO
KJCT 262051Z AUTO 19010G18KT 10SM CLR 36/16 A3003 RMK AO2 SLP127 T03610161 58024 TSNO
KJCT 261951Z AUTO 16013KT 10SM CLR 36/16 A3006 RMK AO2 SLP137 T03560161 TSNO
KJCT 261851Z AUTO 18010G15KT 10SM CLR 34/16 A3009 RMK AO2 SLP147 T03440156 TSNO
KJCT 261751Z AUTO 18013G23KT 10SM CLR 33/16 A3011 RMK AO2 SLP153 T03330161 10333 20239 58012 TSNO
KJCT 261651Z AUTO 17013G20KT 10SM CLR 32/17 A3012 RMK AO2 SLP160 T03170172 TSNO